sensor_id;sensor_type;location;lat;lon;timestamp;temperature;humidity
2407;DHT22;37709;53.480;9.688;2022-12-11T00:00:27;-1.60;99.90
2407;DHT22;37709;53.480;9.688;2022-12-11T00:02:54;-1.60;99.90
2407;DHT22;37709;53.480;9.688;2022-12-11T00:05:22;-1.60;99.90
2407;DHT22;37709;53.480;9.688;2022-12-11T00:07:50;-1.60;99.90
2407;DHT22;37709;53.480;9.688;2022-12-11T00:10:17;-1.60;99.90
2407;DHT22;37709;53.480;9.688;2022-12-11T00:12:45;-1.60;99.90
2407;DHT22;37709;53.480;9.688;2022-12-11T00:15:12;-1.60;99.90
2407;DHT22;37709;53.480;9.688;2022-12-11T00:17:40;-1.60;99.90
2407;DHT22;37709;53.480;9.688;2022-12-11T00:20:08;-1.60;99.90
2407;DHT22;37709;53.480;9.688;2022-12-11T00:22:35;-1.60;99.90
2407;DHT22;37709;53.480;9.688;2022-12-11T00:25:03;-1.60;99.90
2407;DHT22;37709;53.480;9.688;2022-12-11T00:27:30;-1.60;99.90
2407;DHT22;37709;53.480;9.688;2022-12-11T00:29:59;-1.60;99.90
2407;DHT22;37709;53.480;9.688;2022-12-11T00:32:27;-1.60;99.90
2407;DHT22;37709;53.480;9.688;2022-12-11T00:34:55;-1.60;99.90
2407;DHT22;37709;53.480;9.688;2022-12-11T00:37:22;-1.60;99.90
2407;DHT22;37709;53.480;9.688;2022-12-11T00:39:49;-1.60;99.90
2407;DHT22;37709;53.480;9.688;2022-12-11T00:42:16;-1.60;99.90
2407;DHT22;37709;53.480;9.688;2022-12-11T00:44:43;-1.60;99.90
2407;DHT22;37709;53.480;9.688;2022-12-11T00:47:11;-1.60;99.90
2407;DHT22;37709;53.480;9.688;2022-12-11T00:49:38;-1.60;99.90
2407;DHT22;37709;53.480;9.688;2022-12-11T00:52:11;-1.60;99.90
2407;DHT22;37709;53.480;9.688;2022-12-11T00:54:38;-1.60;99.90
2407;DHT22;37709;53.480;9.688;2022-12-11T00:57:05;-1.60;99.90
2407;DHT22;37709;53.480;9.688;2022-12-11T00:59:33;-1.60;99.90
2407;DHT22;37709;53.480;9.688;2022-12-11T01:02:00;-1.60;99.90
2407;DHT22;37709;53.480;9.688;2022-12-11T01:04:27;-1.60;99.90
2407;DHT22;37709;53.480;9.688;2022-12-11T01:06:54;-1.60;99.90
2407;DHT22;37709;53.480;9.688;2022-12-11T01:09:22;-1.60;99.90
2407;DHT22;37709;53.480;9.688;2022-12-11T01:12:08;-1.60;99.90
2407;DHT22;37709;53.480;9.688;2022-12-11T01:14:35;-1.70;99.90
2407;DHT22;37709;53.480;9.688;2022-12-11T01:17:03;-1.60;99.90
2407;DHT22;37709;53.480;9.688;2022-12-11T01:19:30;-1.60;99.90
2407;DHT22;37709;53.480;9.688;2022-12-11T01:21:57;-1.70;99.90
2407;DHT22;37709;53.480;9.688;2022-12-11T01:24:25;-1.70;99.90
2407;DHT22;37709;53.480;9.688;2022-12-11T01:26:53;-1.70;99.90
2407;DHT22;37709;53.480;9.688;2022-12-11T01:29:20;-1.70;99.90
2407;DHT22;37709;53.480;9.688;2022-12-11T01:31:47;-1.70;99.90
2407;DHT22;37709;53.480;9.688;2022-12-11T01:34:14;-1.70;99.90
2407;DHT22;37709;53.480;9.688;2022-12-11T01:36:42;-1.70;99.90
2407;DHT22;37709;53.480;9.688;2022-12-11T01:39:09;-1.70;99.90
2407;DHT22;37709;53.480;9.688;2022-12-11T01:41:37;-1.70;99.90
2407;DHT22;37709;53.480;9.688;2022-12-11T01:46:57;-1.70;99.90
2407;DHT22;37709;53.480;9.688;2022-12-11T01:49:26;-1.70;99.90
2407;DHT22;37709;53.480;9.688;2022-12-11T01:51:59;-1.70;99.90
2407;DHT22;37709;53.480;9.688;2022-12-11T01:54:29;-1.70;99.90
2407;DHT22;37709;53.480;9.688;2022-12-11T01:57:01;-1.70;99.90
2407;DHT22;37709;53.480;9.688;2022-12-11T01:59:32;-1.70;99.90
2407;DHT22;37709;53.480;9.688;2022-12-11T02:33:49;-1.80;99.90
2407;DHT22;37709;53.480;9.688;2022-12-11T02:36:19;-1.80;99.90
2407;DHT22;37709;53.480;9.688;2022-12-11T02:38:49;-1.80;99.90
2407;DHT22;37709;53.480;9.688;2022-12-11T02:41:19;-1.80;99.90
2407;DHT22;37709;53.480;9.688;2022-12-11T02:43:49;-1.90;99.90
2407;DHT22;37709;53.480;9.688;2022-12-11T02:46:18;-1.90;99.90
2407;DHT22;37709;53.480;9.688;2022-12-11T02:48:48;-1.90;99.90
2407;DHT22;37709;53.480;9.688;2022-12-11T02:51:22;-1.90;99.90
2407;DHT22;37709;53.480;9.688;2022-12-11T02:53:53;-1.90;99.90
2407;DHT22;37709;53.480;9.688;2022-12-11T02:56:32;-1.90;99.90
2407;DHT22;37709;53.480;9.688;2022-12-11T02:59:04;-1.90;99.90
2407;DHT22;37709;53.480;9.688;2022-12-11T03:01:33;-1.90;99.90
2407;DHT22;37709;53.480;9.688;2022-12-11T03:04:00;-1.90;99.90
2407;DHT22;37709;53.480;9.688;2022-12-11T03:06:35;-1.90;99.90
2407;DHT22;37709;53.480;9.688;2022-12-11T03:09:04;-1.90;99.90
2407;DHT22;37709;53.480;9.688;2022-12-11T03:11:31;-1.90;99.90
2407;DHT22;37709;53.480;9.688;2022-12-11T03:13:59;-1.90;99.90
2407;DHT22;37709;53.480;9.688;2022-12-11T03:17:02;-1.90;99.90
2407;DHT22;37709;53.480;9.688;2022-12-11T03:19:35;-1.90;99.90
2407;DHT22;37709;53.480;9.688;2022-12-11T03:22:31;-2.00;99.90
2407;DHT22;37709;53.480;9.688;2022-12-11T03:25:06;-2.00;99.90
2407;DHT22;37709;53.480;9.688;2022-12-11T03:27:47;-2.00;99.90
2407;DHT22;37709;53.480;9.688;2022-12-11T03:30:18;-1.90;99.90
2407;DHT22;37709;53.480;9.688;2022-12-11T03:32:57;-1.90;99.90
2407;DHT22;37709;53.480;9.688;2022-12-11T03:35:28;-2.00;99.90
2407;DHT22;37709;53.480;9.688;2022-12-11T03:38:00;-2.00;99.90
2407;DHT22;37709;53.480;9.688;2022-12-11T03:40:31;-2.00;99.90
2407;DHT22;37709;53.480;9.688;2022-12-11T03:43:01;-2.00;99.90
2407;DHT22;37709;53.480;9.688;2022-12-11T03:45:29;-2.00;99.90
2407;DHT22;37709;53.480;9.688;2022-12-11T03:47:58;-2.10;99.90
2407;DHT22;37709;53.480;9.688;2022-12-11T03:50:29;-2.00;99.90
2407;DHT22;37709;53.480;9.688;2022-12-11T03:52:57;-2.00;99.90
2407;DHT22;37709;53.480;9.688;2022-12-11T03:55:27;-2.00;99.90
2407;DHT22;37709;53.480;9.688;2022-12-11T03:57:57;-2.10;99.90
2407;DHT22;37709;53.480;9.688;2022-12-11T04:00:25;-2.10;99.90
2407;DHT22;37709;53.480;9.688;2022-12-11T04:02:52;-2.10;99.90
2407;DHT22;37709;53.480;9.688;2022-12-11T04:06:00;-2.10;99.90
2407;DHT22;37709;53.480;9.688;2022-12-11T04:08:28;-2.10;99.90
2407;DHT22;37709;53.480;9.688;2022-12-11T04:10:55;-2.10;99.90
2407;DHT22;37709;53.480;9.688;2022-12-11T04:13:41;-2.10;99.90
2407;DHT22;37709;53.480;9.688;2022-12-11T04:16:09;-2.10;99.90
2407;DHT22;37709;53.480;9.688;2022-12-11T04:18:36;-2.10;99.90
2407;DHT22;37709;53.480;9.688;2022-12-11T04:21:22;-2.00;99.90
2407;DHT22;37709;53.480;9.688;2022-12-11T04:24:08;-2.00;99.90
2407;DHT22;37709;53.480;9.688;2022-12-11T04:26:43;-2.00;99.90
2407;DHT22;37709;53.480;9.688;2022-12-11T04:29:12;-2.00;99.90
2407;DHT22;37709;53.480;9.688;2022-12-11T04:31:39;-2.00;99.90
2407;DHT22;37709;53.480;9.688;2022-12-11T04:34:07;-2.10;99.90
2407;DHT22;37709;53.480;9.688;2022-12-11T04:36:34;-2.10;99.90
2407;DHT22;37709;53.480;9.688;2022-12-11T04:39:03;-2.10;99.90
2407;DHT22;37709;53.480;9.688;2022-12-11T04:41:31;-2.10;99.90
2407;DHT22;37709;53.480;9.688;2022-12-11T04:43:58;-2.10;99.90
2407;DHT22;37709;53.480;9.688;2022-12-11T04:46:25;-2.10;99.90
2407;DHT22;37709;53.480;9.688;2022-12-11T04:48:53;-2.10;99.90
2407;DHT22;37709;53.480;9.688;2022-12-11T04:51:24;-2.10;99.90
2407;DHT22;37709;53.480;9.688;2022-12-11T04:53:52;-2.10;99.90
2407;DHT22;37709;53.480;9.688;2022-12-11T04:56:19;-2.10;99.90
2407;DHT22;37709;53.480;9.688;2022-12-11T04:58:47;-2.20;99.90
2407;DHT22;37709;53.480;9.688;2022-12-11T05:01:18;-2.20;99.90
2407;DHT22;37709;53.480;9.688;2022-12-11T05:03:45;-2.20;99.90
2407;DHT22;37709;53.480;9.688;2022-12-11T05:06:13;-2.10;99.90
2407;DHT22;37709;53.480;9.688;2022-12-11T05:08:42;-2.20;99.90
2407;DHT22;37709;53.480;9.688;2022-12-11T05:11:13;-2.20;99.90
2407;DHT22;37709;53.480;9.688;2022-12-11T05:13:41;-2.30;99.90
2407;DHT22;37709;53.480;9.688;2022-12-11T05:16:10;-2.40;99.90
2407;DHT22;37709;53.480;9.688;2022-12-11T05:18:38;-2.40;99.90
2407;DHT22;37709;53.480;9.688;2022-12-11T05:21:08;-2.30;99.90
2407;DHT22;37709;53.480;9.688;2022-12-11T05:23:36;-2.30;99.90
2407;DHT22;37709;53.480;9.688;2022-12-11T05:26:07;-2.30;99.90
2407;DHT22;37709;53.480;9.688;2022-12-11T05:28:37;-2.20;99.90
2407;DHT22;37709;53.480;9.688;2022-12-11T05:31:08;-2.10;99.90
2407;DHT22;37709;53.480;9.688;2022-12-11T05:33:38;-2.10;99.90
2407;DHT22;37709;53.480;9.688;2022-12-11T05:36:06;-2.10;99.90
2407;DHT22;37709;53.480;9.688;2022-12-11T05:38:33;-2.10;99.90
2407;DHT22;37709;53.480;9.688;2022-12-11T05:41:06;-2.10;99.90
2407;DHT22;37709;53.480;9.688;2022-12-11T05:43:34;-2.10;99.90
2407;DHT22;37709;53.480;9.688;2022-12-11T05:46:06;-2.00;99.90
2407;DHT22;37709;53.480;9.688;2022-12-11T05:48:35;-2.00;99.90
2407;DHT22;37709;53.480;9.688;2022-12-11T05:51:03;-2.00;99.90
2407;DHT22;37709;53.480;9.688;2022-12-11T05:53:31;-2.00;99.90
2407;DHT22;37709;53.480;9.688;2022-12-11T05:56:03;-2.00;99.90
2407;DHT22;37709;53.480;9.688;2022-12-11T05:58:32;-2.00;99.90
2407;DHT22;37709;53.480;9.688;2022-12-11T06:00:59;-2.10;99.90
2407;DHT22;37709;53.480;9.688;2022-12-11T06:03:27;-2.10;99.90
2407;DHT22;37709;53.480;9.688;2022-12-11T06:05:54;-2.10;99.90
2407;DHT22;37709;53.480;9.688;2022-12-11T06:08:22;-2.10;99.90
2407;DHT22;37709;53.480;9.688;2022-12-11T06:10:50;-2.10;99.90
2407;DHT22;37709;53.480;9.688;2022-12-11T06:13:17;-2.10;99.90
2407;DHT22;37709;53.480;9.688;2022-12-11T06:15:44;-2.00;99.90
2407;DHT22;37709;53.480;9.688;2022-12-11T06:18:11;-2.00;99.90
2407;DHT22;37709;53.480;9.688;2022-12-11T06:20:39;-2.00;99.90
2407;DHT22;37709;53.480;9.688;2022-12-11T06:23:06;-2.10;99.90
2407;DHT22;37709;53.480;9.688;2022-12-11T06:25:34;-2.10;99.90
2407;DHT22;37709;53.480;9.688;2022-12-11T06:28:01;-2.10;99.90
2407;DHT22;37709;53.480;9.688;2022-12-11T06:30:29;-2.10;99.90
2407;DHT22;37709;53.480;9.688;2022-12-11T06:33:06;-2.10;99.90
2407;DHT22;37709;53.480;9.688;2022-12-11T06:35:33;-2.10;99.90
2407;DHT22;37709;53.480;9.688;2022-12-11T06:38:08;-2.10;99.90
2407;DHT22;37709;53.480;9.688;2022-12-11T06:40:36;-2.10;99.90
2407;DHT22;37709;53.480;9.688;2022-12-11T06:43:04;-2.20;99.90
2407;DHT22;37709;53.480;9.688;2022-12-11T06:45:32;-2.20;99.90
2407;DHT22;37709;53.480;9.688;2022-12-11T06:47:59;-2.20;99.90
2407;DHT22;37709;53.480;9.688;2022-12-11T06:50:26;-2.20;99.90
2407;DHT22;37709;53.480;9.688;2022-12-11T06:52:55;-2.20;99.90
2407;DHT22;37709;53.480;9.688;2022-12-11T06:55:22;-2.30;99.90
2407;DHT22;37709;53.480;9.688;2022-12-11T06:57:50;-2.40;99.90
2407;DHT22;37709;53.480;9.688;2022-12-11T07:00:17;-2.50;99.90
2407;DHT22;37709;53.480;9.688;2022-12-11T07:02:44;-2.70;99.90
2407;DHT22;37709;53.480;9.688;2022-12-11T07:05:11;-2.90;99.90
2407;DHT22;37709;53.480;9.688;2022-12-11T07:07:39;-3.10;99.90
2407;DHT22;37709;53.480;9.688;2022-12-11T07:10:07;-3.30;99.90
2407;DHT22;37709;53.480;9.688;2022-12-11T07:12:35;-3.50;99.90
2407;DHT22;37709;53.480;9.688;2022-12-11T07:15:04;-3.80;99.90
2407;DHT22;37709;53.480;9.688;2022-12-11T07:17:31;-4.00;99.90
2407;DHT22;37709;53.480;9.688;2022-12-11T07:20:23;-4.10;99.90
2407;DHT22;37709;53.480;9.688;2022-12-11T07:22:52;-4.20;99.90
2407;DHT22;37709;53.480;9.688;2022-12-11T07:25:20;-4.20;99.90
2407;DHT22;37709;53.480;9.688;2022-12-11T07:27:48;-4.10;99.90
2407;DHT22;37709;53.480;9.688;2022-12-11T07:30:15;-4.10;99.90
2407;DHT22;37709;53.480;9.688;2022-12-11T07:32:43;-4.20;99.90
2407;DHT22;37709;53.480;9.688;2022-12-11T07:35:11;-4.20;99.90
2407;DHT22;37709;53.480;9.688;2022-12-11T07:37:40;-4.30;99.90
2407;DHT22;37709;53.480;9.688;2022-12-11T07:40:08;-4.20;99.90
2407;DHT22;37709;53.480;9.688;2022-12-11T07:42:35;-4.20;99.90
2407;DHT22;37709;53.480;9.688;2022-12-11T07:45:10;-4.20;99.90
2407;DHT22;37709;53.480;9.688;2022-12-11T07:47:38;-4.20;99.90
2407;DHT22;37709;53.480;9.688;2022-12-11T07:50:30;-4.10;99.90
2407;DHT22;37709;53.480;9.688;2022-12-11T07:53:05;-4.20;99.90
2407;DHT22;37709;53.480;9.688;2022-12-11T07:55:33;-4.20;99.90
2407;DHT22;37709;53.480;9.688;2022-12-11T07:58:01;-4.20;99.90
2407;DHT22;37709;53.480;9.688;2022-12-11T08:00:28;-4.20;99.90
2407;DHT22;37709;53.480;9.688;2022-12-11T08:02:58;-4.30;99.90
2407;DHT22;37709;53.480;9.688;2022-12-11T08:05:25;-4.30;99.90
2407;DHT22;37709;53.480;9.688;2022-12-11T08:07:52;-4.40;99.90
2407;DHT22;37709;53.480;9.688;2022-12-11T08:10:19;-4.40;99.90
2407;DHT22;37709;53.480;9.688;2022-12-11T08:12:48;-4.40;99.90
2407;DHT22;37709;53.480;9.688;2022-12-11T08:15:15;-4.30;99.90
2407;DHT22;37709;53.480;9.688;2022-12-11T08:17:42;-4.30;99.90
2407;DHT22;37709;53.480;9.688;2022-12-11T08:20:10;-4.20;99.90
2407;DHT22;37709;53.480;9.688;2022-12-11T08:22:38;-4.20;99.90
2407;DHT22;37709;53.480;9.688;2022-12-11T08:25:06;-4.00;99.90
2407;DHT22;37709;53.480;9.688;2022-12-11T08:27:35;-3.60;99.90
2407;DHT22;37709;53.480;9.688;2022-12-11T08:30:03;-3.30;99.90
2407;DHT22;37709;53.480;9.688;2022-12-11T08:32:30;-2.80;99.90
2407;DHT22;37709;53.480;9.688;2022-12-11T08:34:59;-2.50;99.90
2407;DHT22;37709;53.480;9.688;2022-12-11T08:37:27;-2.50;99.90
2407;DHT22;37709;53.480;9.688;2022-12-11T08:39:55;-2.70;99.90
2407;DHT22;37709;53.480;9.688;2022-12-11T08:42:22;-2.70;99.90
2407;DHT22;37709;53.480;9.688;2022-12-11T08:44:50;-2.40;99.90
2407;DHT22;37709;53.480;9.688;2022-12-11T08:47:19;-2.00;99.90
2407;DHT22;37709;53.480;9.688;2022-12-11T08:49:46;-0.90;99.90
2407;DHT22;37709;53.480;9.688;2022-12-11T08:52:14;-0.60;99.90
2407;DHT22;37709;53.480;9.688;2022-12-11T08:54:41;-0.60;99.90
2407;DHT22;37709;53.480;9.688;2022-12-11T08:57:09;-0.90;99.90
2407;DHT22;37709;53.480;9.688;2022-12-11T08:59:37;-1.10;99.90
2407;DHT22;37709;53.480;9.688;2022-12-11T09:02:04;-1.00;99.90
2407;DHT22;37709;53.480;9.688;2022-12-11T09:04:32;-1.00;99.90
2407;DHT22;37709;53.480;9.688;2022-12-11T09:06:59;-1.00;99.90
2407;DHT22;37709;53.480;9.688;2022-12-11T09:09:27;-0.80;99.90
2407;DHT22;37709;53.480;9.688;2022-12-11T09:11:54;-0.70;99.90
2407;DHT22;37709;53.480;9.688;2022-12-11T09:14:22;-0.80;99.90
2407;DHT22;37709;53.480;9.688;2022-12-11T09:16:49;0.10;99.90
2407;DHT22;37709;53.480;9.688;2022-12-11T09:19:16;1.50;99.90
2407;DHT22;37709;53.480;9.688;2022-12-11T09:21:44;2.70;99.90
2407;DHT22;37709;53.480;9.688;2022-12-11T09:24:12;3.90;99.90
2407;DHT22;37709;53.480;9.688;2022-12-11T09:26:40;4.80;99.90
2407;DHT22;37709;53.480;9.688;2022-12-11T09:29:07;5.30;99.90
2407;DHT22;37709;53.480;9.688;2022-12-11T09:31:35;5.60;99.90
2407;DHT22;37709;53.480;9.688;2022-12-11T09:34:05;6.00;99.90
2407;DHT22;37709;53.480;9.688;2022-12-11T09:36:33;6.30;99.60
2407;DHT22;37709;53.480;9.688;2022-12-11T09:39:04;6.40;98.80
2407;DHT22;37709;53.480;9.688;2022-12-11T09:41:39;5.50;97.90
2407;DHT22;37709;53.480;9.688;2022-12-11T09:44:42;5.10;98.80
2407;DHT22;37709;53.480;9.688;2022-12-11T09:47:39;4.80;99.10
2407;DHT22;37709;53.480;9.688;2022-12-11T09:52:51;4.60;99.10
2407;DHT22;37709;53.480;9.688;2022-12-11T09:55:22;4.10;99.90
2407;DHT22;37709;53.480;9.688;2022-12-11T09:58:49;4.50;99.90
2407;DHT22;37709;53.480;9.688;2022-12-11T10:01:44;3.30;99.90
2407;DHT22;37709;53.480;9.688;2022-12-11T10:04:44;2.90;99.90
2407;DHT22;37709;53.480;9.688;2022-12-11T10:13:00;3.60;99.90
2407;DHT22;37709;53.480;9.688;2022-12-11T10:15:38;2.70;99.90
2407;DHT22;37709;53.480;9.688;2022-12-11T10:18:13;2.80;99.90
2407;DHT22;37709;53.480;9.688;2022-12-11T10:20:42;2.30;99.90
2407;DHT22;37709;53.480;9.688;2022-12-11T10:23:21;2.00;99.90
2407;DHT22;37709;53.480;9.688;2022-12-11T10:25:57;2.00;99.90
2407;DHT22;37709;53.480;9.688;2022-12-11T10:28:28;2.30;99.90
2407;DHT22;37709;53.480;9.688;2022-12-11T10:34:00;1.50;99.90
2407;DHT22;37709;53.480;9.688;2022-12-11T10:36:31;2.00;99.90
2407;DHT22;37709;53.480;9.688;2022-12-11T10:39:00;2.50;99.90
2407;DHT22;37709;53.480;9.688;2022-12-11T10:41:39;2.60;99.90
2407;DHT22;37709;53.480;9.688;2022-12-11T10:44:23;1.80;99.90
2407;DHT22;37709;53.480;9.688;2022-12-11T10:47:10;2.20;99.90
2407;DHT22;37709;53.480;9.688;2022-12-11T10:49:43;3.30;99.90
2407;DHT22;37709;53.480;9.688;2022-12-11T10:52:32;3.70;99.90
2407;DHT22;37709;53.480;9.688;2022-12-11T10:55:24;3.90;99.90
2407;DHT22;37709;53.480;9.688;2022-12-11T10:57:56;6.40;99.90
2407;DHT22;37709;53.480;9.688;2022-12-11T11:00:32;7.70;98.10
2407;DHT22;37709;53.480;9.688;2022-12-11T11:03:01;8.00;97.00
2407;DHT22;37709;53.480;9.688;2022-12-11T11:05:35;9.00;96.60
2407;DHT22;37709;53.480;9.688;2022-12-11T11:08:18;10.20;94.00
2407;DHT22;37709;53.480;9.688;2022-12-11T11:11:04;11.30;92.70
2407;DHT22;37709;53.480;9.688;2022-12-11T11:13:31;12.10;90.90
2407;DHT22;37709;53.480;9.688;2022-12-11T11:16:04;12.80;90.80
2407;DHT22;37709;53.480;9.688;2022-12-11T11:18:33;13.40;89.70
2407;DHT22;37709;53.480;9.688;2022-12-11T11:21:01;14.00;88.50
2407;DHT22;37709;53.480;9.688;2022-12-11T11:23:29;13.80;86.90
2407;DHT22;37709;53.480;9.688;2022-12-11T11:25:59;14.00;86.20
2407;DHT22;37709;53.480;9.688;2022-12-11T11:28:36;14.70;85.10
2407;DHT22;37709;53.480;9.688;2022-12-11T11:31:14;15.20;83.70
2407;DHT22;37709;53.480;9.688;2022-12-11T11:36:39;15.50;81.60
2407;DHT22;37709;53.480;9.688;2022-12-11T13:54:54;5.50;71.20
2407;DHT22;37709;53.480;9.688;2022-12-11T13:57:26;5.30;72.30
2407;DHT22;37709;53.480;9.688;2022-12-11T13:59:57;4.90;73.10
2407;DHT22;37709;53.480;9.688;2022-12-11T14:02:32;4.60;73.60
2407;DHT22;37709;53.480;9.688;2022-12-11T14:05:10;4.40;74.40
2407;DHT22;37709;53.480;9.688;2022-12-11T14:07:50;4.20;75.40
2407;DHT22;37709;53.480;9.688;2022-12-11T14:10:28;3.90;75.90
2407;DHT22;37709;53.480;9.688;2022-12-11T14:13:12;3.40;76.80
2407;DHT22;37709;53.480;9.688;2022-12-11T14:15:44;3.10;78.60
2407;DHT22;37709;53.480;9.688;2022-12-11T14:18:16;2.90;79.40
2407;DHT22;37709;53.480;9.688;2022-12-11T14:20:44;2.70;80.10
2407;DHT22;37709;53.480;9.688;2022-12-11T14:23:20;2.40;81.10
2407;DHT22;37709;53.480;9.688;2022-12-11T14:28:36;1.60;84.10
2407;DHT22;37709;53.480;9.688;2022-12-11T14:31:04;1.30;86.50
2407;DHT22;37709;53.480;9.688;2022-12-11T14:33:36;1.10;90.00
2407;DHT22;37709;53.480;9.688;2022-12-11T14:36:05;0.80;90.40
2407;DHT22;37709;53.480;9.688;2022-12-11T14:38:41;0.50;91.20
2407;DHT22;37709;53.480;9.688;2022-12-11T14:41:15;0.30;92.40
2407;DHT22;37709;53.480;9.688;2022-12-11T14:43:53;0.10;93.60
2407;DHT22;37709;53.480;9.688;2022-12-11T14:46:28;-0.20;95.30
2407;DHT22;37709;53.480;9.688;2022-12-11T14:49:02;-0.30;97.90
2407;DHT22;37709;53.480;9.688;2022-12-11T14:51:35;-0.60;99.90
2407;DHT22;37709;53.480;9.688;2022-12-11T14:54:05;-0.90;99.90
2407;DHT22;37709;53.480;9.688;2022-12-11T14:56:34;-1.10;99.90
2407;DHT22;37709;53.480;9.688;2022-12-11T14:59:04;-1.20;99.90
2407;DHT22;37709;53.480;9.688;2022-12-11T15:01:35;-1.50;99.90
2407;DHT22;37709;53.480;9.688;2022-12-11T15:04:21;-1.70;99.90
2407;DHT22;37709;53.480;9.688;2022-12-11T15:06:50;-1.90;99.90
2407;DHT22;37709;53.480;9.688;2022-12-11T15:09:19;-2.10;99.90
2407;DHT22;37709;53.480;9.688;2022-12-11T15:11:48;-2.30;99.90
2407;DHT22;37709;53.480;9.688;2022-12-11T15:14:18;-2.50;99.90
2407;DHT22;37709;53.480;9.688;2022-12-11T15:16:48;-2.60;99.90
2407;DHT22;37709;53.480;9.688;2022-12-11T15:19:28;-2.80;99.90
2407;DHT22;37709;53.480;9.688;2022-12-11T15:22:01;-3.10;99.90
2407;DHT22;37709;53.480;9.688;2022-12-11T15:24:44;-3.30;99.90
2407;DHT22;37709;53.480;9.688;2022-12-11T15:27:31;-3.30;99.90
2407;DHT22;37709;53.480;9.688;2022-12-11T15:30:00;-3.50;99.90
2407;DHT22;37709;53.480;9.688;2022-12-11T15:32:29;-3.70;99.90
2407;DHT22;37709;53.480;9.688;2022-12-11T15:34:59;-3.70;99.90
2407;DHT22;37709;53.480;9.688;2022-12-11T15:37:30;-3.70;99.90
2407;DHT22;37709;53.480;9.688;2022-12-11T15:39:59;-3.70;99.90
2407;DHT22;37709;53.480;9.688;2022-12-11T15:42:31;-3.80;99.90
2407;DHT22;37709;53.480;9.688;2022-12-11T15:50:00;-3.80;99.90
2407;DHT22;37709;53.480;9.688;2022-12-11T15:54:56;-3.60;99.90
2407;DHT22;37709;53.480;9.688;2022-12-11T15:59:53;-3.60;99.90
2407;DHT22;37709;53.480;9.688;2022-12-11T16:02:20;-3.70;99.90
2407;DHT22;37709;53.480;9.688;2022-12-11T16:04:48;-3.70;99.90
2407;DHT22;37709;53.480;9.688;2022-12-11T16:07:21;-3.70;99.90
2407;DHT22;37709;53.480;9.688;2022-12-11T16:09:50;-3.70;99.90
2407;DHT22;37709;53.480;9.688;2022-12-11T16:12:17;-3.60;99.90
2407;DHT22;37709;53.480;9.688;2022-12-11T16:14:45;-3.60;99.90
2407;DHT22;37709;53.480;9.688;2022-12-11T16:17:14;-3.50;99.90
2407;DHT22;37709;53.480;9.688;2022-12-11T16:19:42;-3.50;99.90
2407;DHT22;37709;53.480;9.688;2022-12-11T16:29:38;-3.40;99.90
2407;DHT22;37709;53.480;9.688;2022-12-11T16:32:07;-3.40;99.90
2407;DHT22;37709;53.480;9.688;2022-12-11T16:34:35;-3.40;99.90
2407;DHT22;37709;53.480;9.688;2022-12-11T16:37:05;-3.30;99.90
2407;DHT22;37709;53.480;9.688;2022-12-11T16:39:33;-3.20;99.90
2407;DHT22;37709;53.480;9.688;2022-12-11T16:42:01;-3.10;99.90
2407;DHT22;37709;53.480;9.688;2022-12-11T16:46:56;-3.20;99.90
2407;DHT22;37709;53.480;9.688;2022-12-11T16:49:24;-3.10;99.90
2407;DHT22;37709;53.480;9.688;2022-12-11T16:51:52;-3.10;99.90
2407;DHT22;37709;53.480;9.688;2022-12-11T16:54:19;-3.10;99.90
2407;DHT22;37709;53.480;9.688;2022-12-11T16:56:46;-3.10;99.90
2407;DHT22;37709;53.480;9.688;2022-12-11T16:59:14;-3.10;99.90
2407;DHT22;37709;53.480;9.688;2022-12-11T17:01:42;-3.10;99.90
2407;DHT22;37709;53.480;9.688;2022-12-11T17:04:11;-3.20;99.90
2407;DHT22;37709;53.480;9.688;2022-12-11T17:06:38;-3.20;99.90
2407;DHT22;37709;53.480;9.688;2022-12-11T17:09:05;-3.20;99.90
2407;DHT22;37709;53.480;9.688;2022-12-11T17:11:33;-3.20;99.90
2407;DHT22;37709;53.480;9.688;2022-12-11T17:14:00;-3.30;99.90
2407;DHT22;37709;53.480;9.688;2022-12-11T17:18:56;-3.30;99.90
2407;DHT22;37709;53.480;9.688;2022-12-11T17:21:24;-3.30;99.90
2407;DHT22;37709;53.480;9.688;2022-12-11T17:23:51;-3.30;99.90
2407;DHT22;37709;53.480;9.688;2022-12-11T17:26:18;-3.30;99.90
2407;DHT22;37709;53.480;9.688;2022-12-11T17:28:46;-3.50;99.90
2407;DHT22;37709;53.480;9.688;2022-12-11T17:31:16;-3.50;99.90
2407;DHT22;37709;53.480;9.688;2022-12-11T17:33:45;-3.50;99.90
2407;DHT22;37709;53.480;9.688;2022-12-11T17:36:14;-3.60;99.90
2407;DHT22;37709;53.480;9.688;2022-12-11T17:38:42;-3.70;99.90
2407;DHT22;37709;53.480;9.688;2022-12-11T17:43:51;-3.70;99.90
2407;DHT22;37709;53.480;9.688;2022-12-11T17:46:19;-3.70;99.90
2407;DHT22;37709;53.480;9.688;2022-12-11T17:48:47;-3.70;99.90
2407;DHT22;37709;53.480;9.688;2022-12-11T17:51:15;-3.80;99.90
2407;DHT22;37709;53.480;9.688;2022-12-11T17:53:51;-3.80;99.90
2407;DHT22;37709;53.480;9.688;2022-12-11T17:56:22;-4.00;99.90
2407;DHT22;37709;53.480;9.688;2022-12-11T17:58:50;-4.00;99.90
2407;DHT22;37709;53.480;9.688;2022-12-11T18:01:17;-4.10;99.90
2407;DHT22;37709;53.480;9.688;2022-12-11T18:03:45;-4.00;99.90
2407;DHT22;37709;53.480;9.688;2022-12-11T18:06:14;-4.10;99.90
2407;DHT22;37709;53.480;9.688;2022-12-11T18:08:42;-4.10;99.90
2407;DHT22;37709;53.480;9.688;2022-12-11T18:11:14;-4.00;99.90
2407;DHT22;37709;53.480;9.688;2022-12-11T18:13:43;-4.00;99.90
2407;DHT22;37709;53.480;9.688;2022-12-11T18:16:26;-4.00;99.90
2407;DHT22;37709;53.480;9.688;2022-12-11T18:18:53;-4.00;99.90
2407;DHT22;37709;53.480;9.688;2022-12-11T18:21:25;-4.00;99.90
2407;DHT22;37709;53.480;9.688;2022-12-11T18:23:53;-4.10;99.90
2407;DHT22;37709;53.480;9.688;2022-12-11T18:26:20;-4.00;99.90
2407;DHT22;37709;53.480;9.688;2022-12-11T18:28:48;-3.90;99.90
2407;DHT22;37709;53.480;9.688;2022-12-11T18:31:16;-3.90;99.90
2407;DHT22;37709;53.480;9.688;2022-12-11T18:33:45;-3.90;99.90
2407;DHT22;37709;53.480;9.688;2022-12-11T18:36:14;-3.90;99.90
2407;DHT22;37709;53.480;9.688;2022-12-11T18:38:42;-3.80;99.90
2407;DHT22;37709;53.480;9.688;2022-12-11T18:41:10;-3.80;99.90
2407;DHT22;37709;53.480;9.688;2022-12-11T18:43:40;-3.80;99.90
2407;DHT22;37709;53.480;9.688;2022-12-11T18:46:12;-3.70;99.90
2407;DHT22;37709;53.480;9.688;2022-12-11T18:48:42;-3.70;99.90
2407;DHT22;37709;53.480;9.688;2022-12-11T18:51:13;-3.60;99.90
2407;DHT22;37709;53.480;9.688;2022-12-11T18:53:40;-3.50;99.90
2407;DHT22;37709;53.480;9.688;2022-12-11T18:56:11;-3.50;99.90
2407;DHT22;37709;53.480;9.688;2022-12-11T18:58:39;-3.40;99.90
2407;DHT22;37709;53.480;9.688;2022-12-11T19:01:12;-3.30;99.90
2407;DHT22;37709;53.480;9.688;2022-12-11T19:03:43;-3.30;99.90
2407;DHT22;37709;53.480;9.688;2022-12-11T19:06:13;-3.30;99.90
2407;DHT22;37709;53.480;9.688;2022-12-11T19:08:41;-3.20;99.90
2407;DHT22;37709;53.480;9.688;2022-12-11T19:11:12;-3.20;99.90
2407;DHT22;37709;53.480;9.688;2022-12-11T19:13:39;-3.20;99.90
2407;DHT22;37709;53.480;9.688;2022-12-11T19:16:07;-3.20;99.90
2407;DHT22;37709;53.480;9.688;2022-12-11T19:18:34;-3.10;99.90
2407;DHT22;37709;53.480;9.688;2022-12-11T19:21:26;-3.10;99.90
2407;DHT22;37709;53.480;9.688;2022-12-11T19:23:54;-3.10;99.90
2407;DHT22;37709;53.480;9.688;2022-12-11T19:26:23;-3.20;99.90
2407;DHT22;37709;53.480;9.688;2022-12-11T19:28:52;-3.20;99.90
2407;DHT22;37709;53.480;9.688;2022-12-11T19:31:21;-3.20;99.90
2407;DHT22;37709;53.480;9.688;2022-12-11T19:33:49;-3.20;99.90
2407;DHT22;37709;53.480;9.688;2022-12-11T19:36:19;-3.10;99.90
2407;DHT22;37709;53.480;9.688;2022-12-11T19:38:47;-3.10;99.90
2407;DHT22;37709;53.480;9.688;2022-12-11T19:41:19;-3.00;99.90